sensor_id;sensor_type;location;lat;lon;timestamp;pressure;altitude;pressure_sealevel;temperature;humidity
6208;BME280;3137;51.550;7.060;2023-01-31T00:01:33;102057.00;;;2.94;84.83
6208;BME280;3137;51.550;7.060;2023-01-31T00:04:03;102065.94;;;2.90;84.37
6208;BME280;3137;51.550;7.060;2023-01-31T00:06:35;102058.84;;;2.90;84.92
6208;BME280;3137;51.550;7.060;2023-01-31T00:09:04;102054.41;;;2.92;84.68
6208;BME280;3137;51.550;7.060;2023-01-31T00:11:31;102044.56;;;2.99;84.81
6208;BME280;3137;51.550;7.060;2023-01-31T00:13:59;102046.44;;;2.94;84.26
6208;BME280;3137;51.550;7.060;2023-01-31T00:16:26;102057.16;;;2.86;85.02
6208;BME280;3137;51.550;7.060;2023-01-31T00:18:53;102069.44;;;2.90;85.45
6208;BME280;3137;51.550;7.060;2023-01-31T00:21:26;102053.41;;;3.00;85.57
6208;BME280;3137;51.550;7.060;2023-01-31T00:23:54;102061.25;;;3.04;85.47
6208;BME280;3137;51.550;7.060;2023-01-31T00:26:24;102054.19;;;3.03;85.17
6208;BME280;3137;51.550;7.060;2023-01-31T00:28:53;102060.31;;;3.07;85.83
6208;BME280;3137;51.550;7.060;2023-01-31T00:31:21;102058.56;;;3.06;85.10
6208;BME280;3137;51.550;7.060;2023-01-31T00:33:49;102051.50;;;3.06;85.14
6208;BME280;3137;51.550;7.060;2023-01-31T00:36:22;102053.13;;;3.13;85.53
6208;BME280;3137;51.550;7.060;2023-01-31T00:38:52;102055.75;;;3.13;85.12
6208;BME280;3137;51.550;7.060;2023-01-31T00:41:20;102049.53;;;3.16;85.42
6208;BME280;3137;51.550;7.060;2023-01-31T00:43:47;102043.22;;;3.23;84.36
6208;BME280;3137;51.550;7.060;2023-01-31T00:46:13;102042.25;;;3.27;85.13
6208;BME280;3137;51.550;7.060;2023-01-31T00:48:40;102040.38;;;3.32;85.02
6208;BME280;3137;51.550;7.060;2023-01-31T00:51:07;102043.97;;;3.30;84.64
6208;BME280;3137;51.550;7.060;2023-01-31T00:53:34;102040.34;;;3.35;84.13
6208;BME280;3137;51.550;7.060;2023-01-31T00:56:07;102038.66;;;3.31;84.68
6208;BME280;3137;51.550;7.060;2023-01-31T00:58:35;102046.50;;;3.36;84.54
6208;BME280;3137;51.550;7.060;2023-01-31T01:01:09;102056.13;;;3.40;84.44
6208;BME280;3137;51.550;7.060;2023-01-31T01:03:36;102046.25;;;3.48;83.74
6208;BME280;3137;51.550;7.060;2023-01-31T01:06:03;102050.69;;;3.48;83.62
6208;BME280;3137;51.550;7.060;2023-01-31T01:08:30;102055.97;;;3.48;83.53
6208;BME280;3137;51.550;7.060;2023-01-31T01:11:10;102057.84;;;3.43;83.58
6208;BME280;3137;51.550;7.060;2023-01-31T01:13:38;102055.28;;;3.38;84.02
6208;BME280;3137;51.550;7.060;2023-01-31T01:16:06;102062.41;;;3.34;83.29
6208;BME280;3137;51.550;7.060;2023-01-31T01:18:34;102056.28;;;3.32;83.30
6208;BME280;3137;51.550;7.060;2023-01-31T01:21:11;102052.78;;;3.30;83.64
6208;BME280;3137;51.550;7.060;2023-01-31T01:23:39;102055.47;;;3.29;83.46
6208;BME280;3137;51.550;7.060;2023-01-31T01:26:13;102043.97;;;3.30;83.21
6208;BME280;3137;51.550;7.060;2023-01-31T01:28:39;102040.63;;;3.20;83.61
6208;BME280;3137;51.550;7.060;2023-01-31T01:31:07;102036.28;;;3.16;83.73
6208;BME280;3137;51.550;7.060;2023-01-31T01:33:35;102030.88;;;3.24;83.67
6208;BME280;3137;51.550;7.060;2023-01-31T01:36:06;102038.91;;;3.19;83.72
6208;BME280;3137;51.550;7.060;2023-01-31T01:38:36;102035.41;;;3.18;83.63
6208;BME280;3137;51.550;7.060;2023-01-31T01:41:04;102030.03;;;3.20;83.51
6208;BME280;3137;51.550;7.060;2023-01-31T01:43:48;102037.28;;;3.12;83.45
6208;BME280;3137;51.550;7.060;2023-01-31T01:46:38;102025.03;;;3.06;83.32
6208;BME280;3137;51.550;7.060;2023-01-31T01:49:25;102025.09;;;3.03;84.23
6208;BME280;3137;51.550;7.060;2023-01-31T01:51:56;102027.75;;;3.02;84.15
6208;BME280;3137;51.550;7.060;2023-01-31T01:54:28;102026.94;;;3.00;83.82
6208;BME280;3137;51.550;7.060;2023-01-31T01:56:59;102029.50;;;3.04;83.91
6208;BME280;3137;51.550;7.060;2023-01-31T01:59:34;102025.94;;;3.05;83.42
6208;BME280;3137;51.550;7.060;2023-01-31T02:02:03;102035.66;;;3.05;83.66
6208;BME280;3137;51.550;7.060;2023-01-31T02:04:35;102035.59;;;3.08;83.43
6208;BME280;3137;51.550;7.060;2023-01-31T02:07:03;102032.00;;;3.12;83.49
6208;BME280;3137;51.550;7.060;2023-01-31T02:09:51;102033.78;;;3.11;83.62
6208;BME280;3137;51.550;7.060;2023-01-31T02:12:20;102045.13;;;3.16;83.48
6208;BME280;3137;51.550;7.060;2023-01-31T02:14:47;102040.72;;;3.15;83.42
6208;BME280;3137;51.550;7.060;2023-01-31T02:17:17;102045.09;;;3.18;82.91
6208;BME280;3137;51.550;7.060;2023-01-31T02:19:50;102047.69;;;3.21;83.33
6208;BME280;3137;51.550;7.060;2023-01-31T02:22:29;102047.63;;;3.23;82.67
6208;BME280;3137;51.550;7.060;2023-01-31T02:27:48;102063.44;;;3.27;82.33
6208;BME280;3137;51.550;7.060;2023-01-31T02:31:06;102070.44;;;3.30;82.82
6208;BME280;3137;51.550;7.060;2023-01-31T02:33:44;102071.22;;;3.35;81.94
6208;BME280;3137;51.550;7.060;2023-01-31T02:36:37;102068.72;;;3.29;82.28
6208;BME280;3137;51.550;7.060;2023-01-31T02:39:19;102071.31;;;3.30;82.18
6208;BME280;3137;51.550;7.060;2023-01-31T02:41:56;102069.66;;;3.26;82.40
6208;BME280;3137;51.550;7.060;2023-01-31T02:44:35;102062.50;;;3.30;82.26
6208;BME280;3137;51.550;7.060;2023-01-31T02:55:17;102046.53;;;3.34;82.47
6208;BME280;3137;51.550;7.060;2023-01-31T02:58:07;102054.63;;;3.27;82.43
6208;BME280;3137;51.550;7.060;2023-01-31T03:00:37;102053.69;;;3.29;82.32
6208;BME280;3137;51.550;7.060;2023-01-31T03:03:07;102051.03;;;3.31;81.88
6208;BME280;3137;51.550;7.060;2023-01-31T03:05:34;102055.28;;;3.38;82.24
6208;BME280;3137;51.550;7.060;2023-01-31T03:08:02;102048.91;;;3.47;82.03
6208;BME280;3137;51.550;7.060;2023-01-31T03:15:56;102041.69;;;3.55;81.87
6208;BME280;3137;51.550;7.060;2023-01-31T03:18:59;102035.31;;;3.63;81.44
6208;BME280;3137;51.550;7.060;2023-01-31T03:21:39;102030.94;;;3.61;81.46
6208;BME280;3137;51.550;7.060;2023-01-31T03:24:07;102025.63;;;3.64;81.69
6208;BME280;3137;51.550;7.060;2023-01-31T03:26:34;102015.13;;;3.59;82.10
6208;BME280;3137;51.550;7.060;2023-01-31T03:29:02;102015.13;;;3.59;81.70
6208;BME280;3137;51.550;7.060;2023-01-31T03:31:35;102017.59;;;3.67;81.44
6208;BME280;3137;51.550;7.060;2023-01-31T03:34:06;102010.81;;;3.54;82.22
6208;BME280;3137;51.550;7.060;2023-01-31T03:36:51;102009.03;;;3.54;81.85
6208;BME280;3137;51.550;7.060;2023-01-31T03:39:39;102002.84;;;3.54;82.33
6208;BME280;3137;51.550;7.060;2023-01-31T03:42:23;101998.38;;;3.57;82.41
6208;BME280;3137;51.550;7.060;2023-01-31T03:44:57;101995.84;;;3.53;82.59
6208;BME280;3137;51.550;7.060;2023-01-31T03:47:38;101986.03;;;3.56;81.97
6208;BME280;3137;51.550;7.060;2023-01-31T03:50:20;101977.25;;;3.54;82.11
6208;BME280;3137;51.550;7.060;2023-01-31T03:52:53;101982.50;;;3.56;81.73
6208;BME280;3137;51.550;7.060;2023-01-31T03:55:42;101973.03;;;3.47;81.73
6208;BME280;3137;51.550;7.060;2023-01-31T03:58:12;101958.16;;;3.40;82.00
6208;BME280;3137;51.550;7.060;2023-01-31T04:00:42;101951.00;;;3.44;82.68
6208;BME280;3137;51.550;7.060;2023-01-31T04:03:15;101959.97;;;3.38;82.60
6208;BME280;3137;51.550;7.060;2023-01-31T04:05:43;101953.09;;;3.29;82.24
6208;BME280;3137;51.550;7.060;2023-01-31T04:08:10;101964.53;;;3.31;82.47
6208;BME280;3137;51.550;7.060;2023-01-31T04:10:38;101961.09;;;3.26;82.48
6208;BME280;3137;51.550;7.060;2023-01-31T04:13:04;101952.25;;;3.27;82.57
6208;BME280;3137;51.550;7.060;2023-01-31T04:15:31;101955.84;;;3.25;83.20
6208;BME280;3137;51.550;7.060;2023-01-31T04:17:57;101962.00;;;3.25;82.43
6208;BME280;3137;51.550;7.060;2023-01-31T04:20:24;101958.38;;;3.31;83.07
6208;BME280;3137;51.550;7.060;2023-01-31T04:22:50;101968.94;;;3.31;83.27
6208;BME280;3137;51.550;7.060;2023-01-31T04:25:17;101972.31;;;3.37;82.51
6208;BME280;3137;51.550;7.060;2023-01-31T04:27:44;101972.28;;;3.39;83.47
6208;BME280;3137;51.550;7.060;2023-01-31T04:30:11;101973.03;;;3.47;83.20
6208;BME280;3137;51.550;7.060;2023-01-31T04:32:37;101974.81;;;3.45;82.92
6208;BME280;3137;51.550;7.060;2023-01-31T04:35:04;101975.69;;;3.46;83.10
6208;BME280;3137;51.550;7.060;2023-01-31T04:37:30;101973.03;;;3.46;82.21
6208;BME280;3137;51.550;7.060;2023-01-31T04:39:57;101971.19;;;3.49;82.60
6208;BME280;3137;51.550;7.060;2023-01-31T04:42:23;101970.38;;;3.47;82.54
6208;BME280;3137;51.550;7.060;2023-01-31T04:44:50;101960.63;;;3.48;83.22
6208;BME280;3137;51.550;7.060;2023-01-31T04:47:16;101961.59;;;3.45;82.97
6208;BME280;3137;51.550;7.060;2023-01-31T04:49:42;101956.06;;;3.54;83.41
6208;BME280;3137;51.550;7.060;2023-01-31T04:52:10;101954.31;;;3.55;83.57
6208;BME280;3137;51.550;7.060;2023-01-31T04:54:36;101958.69;;;3.54;82.90
6208;BME280;3137;51.550;7.060;2023-01-31T04:57:03;101963.22;;;3.51;83.28
6208;BME280;3137;51.550;7.060;2023-01-31T04:59:29;101953.53;;;3.50;82.99
6208;BME280;3137;51.550;7.060;2023-01-31T05:01:56;101948.19;;;3.51;82.99
6208;BME280;3137;51.550;7.060;2023-01-31T05:04:22;101952.63;;;3.49;83.68
6208;BME280;3137;51.550;7.060;2023-01-31T05:06:48;101944.66;;;3.51;83.79
6208;BME280;3137;51.550;7.060;2023-01-31T05:09:15;101940.22;;;3.53;83.93
6208;BME280;3137;51.550;7.060;2023-01-31T05:11:43;101941.09;;;3.53;83.45
6208;BME280;3137;51.550;7.060;2023-01-31T05:14:10;101924.41;;;3.50;83.70
6208;BME280;3137;51.550;7.060;2023-01-31T05:16:36;101934.06;;;3.52;83.46
6208;BME280;3137;51.550;7.060;2023-01-31T05:19:03;101936.53;;;3.58;83.38
6208;BME280;3137;51.550;7.060;2023-01-31T05:21:29;101925.94;;;3.58;83.96
6208;BME280;3137;51.550;7.060;2023-01-31T05:24:16;101924.13;;;3.60;83.41
6208;BME280;3137;51.550;7.060;2023-01-31T05:26:42;101924.97;;;3.62;83.00
6208;BME280;3137;51.550;7.060;2023-01-31T05:29:09;101921.63;;;3.54;83.95
6208;BME280;3137;51.550;7.060;2023-01-31T05:31:35;101918.16;;;3.52;83.85
6208;BME280;3137;51.550;7.060;2023-01-31T05:34:02;101912.91;;;3.49;82.99
6208;BME280;3137;51.550;7.060;2023-01-31T05:36:29;101915.47;;;3.54;83.59
6208;BME280;3137;51.550;7.060;2023-01-31T05:38:56;101916.31;;;3.54;83.07
6208;BME280;3137;51.550;7.060;2023-01-31T05:41:22;101912.06;;;3.49;83.91
6208;BME280;3137;51.550;7.060;2023-01-31T05:43:49;101913.00;;;3.46;84.30
6208;BME280;3137;51.550;7.060;2023-01-31T05:46:15;101903.13;;;3.53;83.69
6208;BME280;3137;51.550;7.060;2023-01-31T05:48:42;101912.69;;;3.60;84.17
6208;BME280;3137;51.550;7.060;2023-01-31T05:51:08;101902.03;;;3.61;83.34
6208;BME280;3137;51.550;7.060;2023-01-31T05:53:35;101893.31;;;3.58;83.38
6208;BME280;3137;51.550;7.060;2023-01-31T05:56:01;101897.78;;;3.54;83.40
6208;BME280;3137;51.550;7.060;2023-01-31T05:58:27;101884.38;;;3.62;83.00
6208;BME280;3137;51.550;7.060;2023-01-31T06:00:54;101870.09;;;3.68;83.58
6208;BME280;3137;51.550;7.060;2023-01-31T06:03:21;101867.47;;;3.66;83.26
6208;BME280;3137;51.550;7.060;2023-01-31T06:05:48;101868.19;;;3.74;83.10
6208;BME280;3137;51.550;7.060;2023-01-31T06:08:14;101847.84;;;3.75;82.68
6208;BME280;3137;51.550;7.060;2023-01-31T06:10:41;101856.66;;;3.75;82.90
6208;BME280;3137;51.550;7.060;2023-01-31T06:13:07;101847.84;;;3.75;83.41
6208;BME280;3137;51.550;7.060;2023-01-31T06:15:34;101864.81;;;3.68;82.44
6208;BME280;3137;51.550;7.060;2023-01-31T06:18:01;101863.94;;;3.67;83.36
6208;BME280;3137;51.550;7.060;2023-01-31T06:20:28;101870.31;;;3.60;83.12
6208;BME280;3137;51.550;7.060;2023-01-31T06:22:55;101863.19;;;3.62;82.64
6208;BME280;3137;51.550;7.060;2023-01-31T06:25:21;101872.03;;;3.61;82.87
6208;BME280;3137;51.550;7.060;2023-01-31T06:27:48;101864.91;;;3.63;83.24
6208;BME280;3137;51.550;7.060;2023-01-31T06:30:14;101883.47;;;3.63;83.63
6208;BME280;3137;51.550;7.060;2023-01-31T06:32:41;101882.69;;;3.59;83.60
6208;BME280;3137;51.550;7.060;2023-01-31T06:35:08;101884.31;;;3.63;83.05
6208;BME280;3137;51.550;7.060;2023-01-31T06:37:34;101871.97;;;3.64;82.77
6208;BME280;3137;51.550;7.060;2023-01-31T06:40:00;101876.34;;;3.67;82.81
6208;BME280;3137;51.550;7.060;2023-01-31T06:42:27;101877.09;;;3.70;83.52
6208;BME280;3137;51.550;7.060;2023-01-31T06:44:53;101878.06;;;3.68;83.41
6208;BME280;3137;51.550;7.060;2023-01-31T06:47:20;101884.28;;;3.67;82.92
6208;BME280;3137;51.550;7.060;2023-01-31T06:49:46;101878.06;;;3.68;82.43
6208;BME280;3137;51.550;7.060;2023-01-31T06:52:13;101873.72;;;3.63;83.37
6208;BME280;3137;51.550;7.060;2023-01-31T06:54:40;101884.91;;;3.76;83.37
6208;BME280;3137;51.550;7.060;2023-01-31T06:57:07;101886.56;;;3.80;82.93
6208;BME280;3137;51.550;7.060;2023-01-31T06:59:33;101886.63;;;3.79;82.74
6208;BME280;3137;51.550;7.060;2023-01-31T07:01:59;101896.38;;;3.77;82.19
6208;BME280;3137;51.550;7.060;2023-01-31T07:04:26;101894.69;;;3.73;83.15
6208;BME280;3137;51.550;7.060;2023-01-31T07:06:52;101884.22;;;3.68;82.81
6208;BME280;3137;51.550;7.060;2023-01-31T07:09:19;101903.56;;;3.72;82.68
6208;BME280;3137;51.550;7.060;2023-01-31T07:11:45;101891.06;;;3.78;82.77
6208;BME280;3137;51.550;7.060;2023-01-31T07:14:12;101896.28;;;3.81;82.72
6208;BME280;3137;51.550;7.060;2023-01-31T07:16:38;101887.34;;;3.86;82.09
6208;BME280;3137;51.550;7.060;2023-01-31T07:19:05;101902.31;;;3.87;81.84
6208;BME280;3137;51.550;7.060;2023-01-31T07:21:31;101884.53;;;3.90;82.60
6208;BME280;3137;51.550;7.060;2023-01-31T07:23:58;101882.72;;;3.94;82.10
6208;BME280;3137;51.550;7.060;2023-01-31T07:26:25;101874.72;;;3.95;81.78
6208;BME280;3137;51.550;7.060;2023-01-31T07:28:51;101873.66;;;4.02;81.59
6208;BME280;3137;51.550;7.060;2023-01-31T07:31:18;101870.00;;;4.07;81.48
6208;BME280;3137;51.550;7.060;2023-01-31T07:33:45;101870.06;;;4.05;81.44
6208;BME280;3137;51.550;7.060;2023-01-31T07:36:13;101884.16;;;4.07;80.53
6208;BME280;3137;51.550;7.060;2023-01-31T07:38:40;101885.03;;;4.06;80.94
6208;BME280;3137;51.550;7.060;2023-01-31T07:41:09;101877.78;;;4.14;80.56
6208;BME280;3137;51.550;7.060;2023-01-31T07:43:36;101874.09;;;4.18;79.72
6208;BME280;3137;51.550;7.060;2023-01-31T07:46:05;101866.97;;;4.22;79.96
6208;BME280;3137;51.550;7.060;2023-01-31T07:48:34;101864.25;;;4.23;79.43
6208;BME280;3137;51.550;7.060;2023-01-31T07:51:01;101863.34;;;4.24;79.88
6208;BME280;3137;51.550;7.060;2023-01-31T07:53:29;101846.41;;;4.30;79.26
6208;BME280;3137;51.550;7.060;2023-01-31T07:58:37;101851.66;;;4.32;79.21
6208;BME280;3137;51.550;7.060;2023-01-31T08:01:04;101848.03;;;4.36;78.65
6208;BME280;3137;51.550;7.060;2023-01-31T08:03:50;101843.59;;;4.36;78.89
6208;BME280;3137;51.550;7.060;2023-01-31T08:06:16;101845.16;;;4.43;79.02
6208;BME280;3137;51.550;7.060;2023-01-31T08:08:44;101842.31;;;4.50;78.06
6208;BME280;3137;51.550;7.060;2023-01-31T08:11:11;101845.78;;;4.52;77.75
6208;BME280;3137;51.550;7.060;2023-01-31T08:13:37;101831.69;;;4.50;77.87
6208;BME280;3137;51.550;7.060;2023-01-31T08:16:06;101831.75;;;4.48;77.92
6208;BME280;3137;51.550;7.060;2023-01-31T08:18:35;101835.31;;;4.47;78.47
6208;BME280;3137;51.550;7.060;2023-01-31T08:21:01;101844.22;;;4.44;79.17
6208;BME280;3137;51.550;7.060;2023-01-31T08:23:28;101845.19;;;4.42;78.61
6208;BME280;3137;51.550;7.060;2023-01-31T08:26:00;101855.91;;;4.37;79.17
6208;BME280;3137;51.550;7.060;2023-01-31T08:28:27;101843.53;;;4.38;79.56
6208;BME280;3137;51.550;7.060;2023-01-31T08:30:54;101842.75;;;4.34;80.41
6208;BME280;3137;51.550;7.060;2023-01-31T08:33:35;101839.56;;;4.21;81.81
6208;BME280;3137;51.550;7.060;2023-01-31T08:38:45;101819.38;;;4.16;82.77
6208;BME280;3137;51.550;7.060;2023-01-31T08:41:13;101821.28;;;4.12;82.72
6208;BME280;3137;51.550;7.060;2023-01-31T08:43:39;101822.13;;;4.13;83.84
6208;BME280;3137;51.550;7.060;2023-01-31T08:46:26;101807.81;;;4.18;83.74
6208;BME280;3137;51.550;7.060;2023-01-31T08:48:52;101800.00;;;4.14;84.27
6208;BME280;3137;51.550;7.060;2023-01-31T08:51:19;101792.94;;;4.14;83.97
6208;BME280;3137;51.550;7.060;2023-01-31T08:53:47;101798.91;;;4.21;84.52
6208;BME280;3137;51.550;7.060;2023-01-31T08:56:14;101793.75;;;4.16;84.44
6208;BME280;3137;51.550;7.060;2023-01-31T08:58:41;101790.84;;;4.25;84.45
6208;BME280;3137;51.550;7.060;2023-01-31T09:01:13;101788.84;;;4.34;84.49
6208;BME280;3137;51.550;7.060;2023-01-31T09:03:41;101786.00;;;4.40;85.10
6208;BME280;3137;51.550;7.060;2023-01-31T09:06:16;101763.81;;;4.42;84.54
6208;BME280;3137;51.550;7.060;2023-01-31T09:08:42;101773.34;;;4.50;84.19
6208;BME280;3137;51.550;7.060;2023-01-31T09:11:09;101781.16;;;4.54;83.82
6208;BME280;3137;51.550;7.060;2023-01-31T09:13:35;101773.91;;;4.61;84.29
6208;BME280;3137;51.550;7.060;2023-01-31T09:16:07;101769.53;;;4.60;83.32
6208;BME280;3137;51.550;7.060;2023-01-31T09:18:35;101767.63;;;4.63;83.55
6208;BME280;3137;51.550;7.060;2023-01-31T09:21:13;101765.66;;;4.70;83.74
6208;BME280;3137;51.550;7.060;2023-01-31T09:23:40;101770.03;;;4.71;83.23
6208;BME280;3137;51.550;7.060;2023-01-31T09:26:10;101785.78;;;4.77;82.88
6208;BME280;3137;51.550;7.060;2023-01-31T09:28:37;101767.16;;;4.79;83.36
6208;BME280;3137;51.550;7.060;2023-01-31T09:31:12;101764.47;;;4.80;82.96
6208;BME280;3137;51.550;7.060;2023-01-31T09:33:39;101759.72;;;4.90;82.83
6208;BME280;3137;51.550;7.060;2023-01-31T09:36:08;101737.63;;;4.89;82.56
6208;BME280;3137;51.550;7.060;2023-01-31T09:38:35;101750.88;;;4.91;82.35
6208;BME280;3137;51.550;7.060;2023-01-31T09:41:05;101748.44;;;4.83;82.72
6208;BME280;3137;51.550;7.060;2023-01-31T09:43:44;101747.47;;;4.86;82.56
6208;BME280;3137;51.550;7.060;2023-01-31T09:46:15;101753.75;;;4.83;83.24
6208;BME280;3137;51.550;7.060;2023-01-31T09:48:47;101749.22;;;4.87;83.40
6208;BME280;3137;51.550;7.060;2023-01-31T09:51:15;101750.09;;;4.87;83.45
6208;BME280;3137;51.550;7.060;2023-01-31T09:53:43;101754.25;;;4.96;83.20
6208;BME280;3137;51.550;7.060;2023-01-31T09:56:31;101742.81;;;4.94;83.07
6208;BME280;3137;51.550;7.060;2023-01-31T09:59:15;101727.06;;;4.88;83.28
6208;BME280;3137;51.550;7.060;2023-01-31T10:02:00;101745.91;;;4.79;83.92
6208;BME280;3137;51.550;7.060;2023-01-31T10:07:37;101742.50;;;4.75;84.25
6208;BME280;3137;51.550;7.060;2023-01-31T10:10:34;101725.63;;;4.78;84.86
6208;BME280;3137;51.550;7.060;2023-01-31T10:13:08;101721.03;;;4.83;84.28
6208;BME280;3137;51.550;7.060;2023-01-31T10:15:56;101725.22;;;4.90;84.87
6208;BME280;3137;51.550;7.060;2023-01-31T10:18:35;101705.63;;;4.94;84.77
6208;BME280;3137;51.550;7.060;2023-01-31T10:21:08;101709.16;;;4.95;84.55
6208;BME280;3137;51.550;7.060;2023-01-31T10:23:41;101696.66;;;4.98;84.02
6208;BME280;3137;51.550;7.060;2023-01-31T10:26:14;101697.41;;;5.02;84.03
6208;BME280;3137;51.550;7.060;2023-01-31T10:34:04;101694.09;;;4.95;83.71
6208;BME280;3137;51.550;7.060;2023-01-31T10:36:58;101699.47;;;4.94;83.74
6208;BME280;3137;51.550;7.060;2023-01-31T10:39:36;101700.63;;;4.85;83.41
6208;BME280;3137;51.550;7.060;2023-01-31T10:42:05;101686.53;;;4.83;83.77
6208;BME280;3137;51.550;7.060;2023-01-31T10:47:15;101693.59;;;4.84;84.14
6208;BME280;3137;51.550;7.060;2023-01-31T10:49:45;101679.44;;;4.83;84.05
6208;BME280;3137;51.550;7.060;2023-01-31T10:55:23;101680.22;;;4.87;83.70
6208;BME280;3137;51.550;7.060;2023-01-31T10:57:51;101663.44;;;4.86;83.34
6208;BME280;3137;51.550;7.060;2023-01-31T11:00:26;101669.22;;;4.98;82.90
6208;BME280;3137;51.550;7.060;2023-01-31T11:02:55;101675.09;;;5.07;83.20
6208;BME280;3137;51.550;7.060;2023-01-31T11:05:25;101673.25;;;5.09;83.22
6208;BME280;3137;51.550;7.060;2023-01-31T11:07:55;101670.59;;;5.09;82.66
6208;BME280;3137;51.550;7.060;2023-01-31T11:12:56;101660.75;;;5.13;83.40
6208;BME280;3137;51.550;7.060;2023-01-31T11:15:28;101658.13;;;5.13;83.34
6208;BME280;3137;51.550;7.060;2023-01-31T11:18:00;101655.16;;;5.22;82.84
6208;BME280;3137;51.550;7.060;2023-01-31T11:20:30;101654.09;;;5.26;82.91
6208;BME280;3137;51.550;7.060;2023-01-31T11:22:58;101662.22;;;5.22;82.39
6208;BME280;3137;51.550;7.060;2023-01-31T11:25:27;101650.53;;;5.27;83.08
6208;BME280;3137;51.550;7.060;2023-01-31T11:28:00;101656.75;;;5.26;82.97
6208;BME280;3137;51.550;7.060;2023-01-31T11:30:28;101645.09;;;5.30;82.85
6208;BME280;3137;51.550;7.060;2023-01-31T11:32:56;101651.09;;;5.37;82.85
6208;BME280;3137;51.550;7.060;2023-01-31T11:35:28;101655.38;;;5.41;82.22
6208;BME280;3137;51.550;7.060;2023-01-31T11:40:32;101641.69;;;5.52;82.08
6208;BME280;3137;51.550;7.060;2023-01-31T11:43:20;101635.63;;;5.48;81.86
6208;BME280;3137;51.550;7.060;2023-01-31T11:45:58;101625.25;;;5.41;82.29
6208;BME280;3137;51.550;7.060;2023-01-31T11:48:39;101618.97;;;5.43;82.34
6208;BME280;3137;51.550;7.060;2023-01-31T11:51:06;101627.66;;;5.48;82.60
6208;BME280;3137;51.550;7.060;2023-01-31T11:53:46;101633.56;;;5.57;82.34
6208;BME280;3137;51.550;7.060;2023-01-31T11:56:16;101631.09;;;5.50;82.42
6208;BME280;3137;51.550;7.060;2023-01-31T11:58:47;101620.41;;;5.53;82.01
6208;BME280;3137;51.550;7.060;2023-01-31T12:01:20;101626.84;;;5.46;82.02
6208;BME280;3137;51.550;7.060;2023-01-31T12:03:54;101621.28;;;5.52;82.39
6208;BME280;3137;51.550;7.060;2023-01-31T12:06:31;101631.84;;;5.56;82.33
6208;BME280;3137;51.550;7.060;2023-01-31T12:09:01;101628.13;;;5.60;82.31
6208;BME280;3137;51.550;7.060;2023-01-31T12:11:33;101622.13;;;5.54;82.32
6208;BME280;3137;51.550;7.060;2023-01-31T12:14:13;101624.81;;;5.53;82.70
6208;BME280;3137;51.550;7.060;2023-01-31T12:16:42;101617.56;;;5.58;82.56
6208;BME280;3137;51.550;7.060;2023-01-31T12:33:14;101577.16;;;5.72;82.73
6208;BME280;3137;51.550;7.060;2023-01-31T12:36:18;101587.72;;;5.75;82.21
6208;BME280;3137;51.550;7.060;2023-01-31T12:41:46;101562.91;;;5.74;82.49
6208;BME280;3137;51.550;7.060;2023-01-31T12:55:00;101578.75;;;5.78;82.74
6208;BME280;3137;51.550;7.060;2023-01-31T12:57:38;101576.97;;;5.78;82.52
6208;BME280;3137;51.550;7.060;2023-01-31T13:00:14;101572.38;;;5.82;82.61
6208;BME280;3137;51.550;7.060;2023-01-31T13:03:15;101574.97;;;5.83;82.56
6208;BME280;3137;51.550;7.060;2023-01-31T13:05:56;101569.63;;;5.85;82.74
6208;BME280;3137;51.550;7.060;2023-01-31T13:08:30;101566.97;;;5.85;82.67
6208;BME280;3137;51.550;7.060;2023-01-31T13:11:08;101580.28;;;5.83;83.03
6208;BME280;3137;51.550;7.060;2023-01-31T13:13:47;101575.97;;;5.81;83.75
6208;BME280;3137;51.550;7.060;2023-01-31T13:16:20;101574.47;;;5.73;84.30
6208;BME280;3137;51.550;7.060;2023-01-31T13:18:50;101572.78;;;5.71;84.97
6208;BME280;3137;51.550;7.060;2023-01-31T13:21:22;101577.34;;;5.67;86.16
6208;BME280;3137;51.550;7.060;2023-01-31T13:23:59;101573.13;;;5.62;86.84
6208;BME280;3137;51.550;7.060;2023-01-31T13:26:49;101584.00;;;5.56;87.48
6208;BME280;3137;51.550;7.060;2023-01-31T13:29:21;101571.59;;;5.56;88.22
6208;BME280;3137;51.550;7.060;2023-01-31T13:31:59;101577.81;;;5.55;88.44
6208;BME280;3137;51.550;7.060;2023-01-31T13:34:38;101575.22;;;5.53;88.92
6208;BME280;3137;51.550;7.060;2023-01-31T13:37:10;101570.13;;;5.47;89.15
6208;BME280;3137;51.550;7.060;2023-01-31T13:39:43;101572.75;;;5.49;89.36
6208;BME280;3137;51.550;7.060;2023-01-31T13:42:13;101559.63;;;5.44;89.93
6208;BME280;3137;51.550;7.060;2023-01-31T13:44:41;101554.19;;;5.47;90.15
6208;BME280;3137;51.550;7.060;2023-01-31T13:47:15;101557.81;;;5.45;90.30
6208;BME280;3137;51.550;7.060;2023-01-31T13:49:52;101560.47;;;5.45;90.21
6208;BME280;3137;51.550;7.060;2023-01-31T13:55:04;101563.03;;;5.48;90.84
6208;BME280;3137;51.550;7.060;2023-01-31T13:57:39;101556.00;;;5.47;90.82
6208;BME280;3137;51.550;7.060;2023-01-31T14:00:38;101558.53;;;5.50;91.11
6208;BME280;3137;51.550;7.060;2023-01-31T14:03:14;101548.88;;;5.47;90.84
6208;BME280;3137;51.550;7.060;2023-01-31T14:10:54;101537.38;;;5.47;91.25
6208;BME280;3137;51.550;7.060;2023-01-31T14:16:00;101540.00;;;5.48;91.14
6208;BME280;3137;51.550;7.060;2023-01-31T14:18:43;101547.91;;;5.50;91.17
6208;BME280;3137;51.550;7.060;2023-01-31T14:23:56;101542.44;;;5.53;91.34
6208;BME280;3137;51.550;7.060;2023-01-31T14:26:49;101548.72;;;5.52;91.36
6208;BME280;3137;51.550;7.060;2023-01-31T14:29:22;101557.38;;;5.57;91.09
6208;BME280;3137;51.550;7.060;2023-01-31T14:31:50;101560.16;;;5.54;91.19
6208;BME280;3137;51.550;7.060;2023-01-31T14:34:28;101559.34;;;5.52;90.98
6208;BME280;3137;51.550;7.060;2023-01-31T14:37:20;101560.09;;;5.56;91.39
6208;BME280;3137;51.550;7.060;2023-01-31T14:40:00;101568.00;;;5.57;91.57
6208;BME280;3137;51.550;7.060;2023-01-31T14:48:55;101562.50;;;5.62;91.49
6208;BME280;3137;51.550;7.060;2023-01-31T14:52:14;101567.00;;;5.60;91.38
6208;BME280;3137;51.550;7.060;2023-01-31T14:57:49;101561.53;;;5.64;91.38
6208;BME280;3137;51.550;7.060;2023-01-31T15:00:27;101562.47;;;5.63;91.37
6208;BME280;3137;51.550;7.060;2023-01-31T15:08:01;101571.81;;;5.73;91.17
6208;BME280;3137;51.550;7.060;2023-01-31T15:10:54;101573.47;;;5.76;91.21
6208;BME280;3137;51.550;7.060;2023-01-31T15:13:46;101586.56;;;5.82;91.06
6208;BME280;3137;51.550;7.060;2023-01-31T15:16:22;101593.59;;;5.83;90.97
6208;BME280;3137;51.550;7.060;2023-01-31T15:18:53;101597.09;;;5.84;90.98
6208;BME280;3137;51.550;7.060;2023-01-31T15:21:29;101596.25;;;5.83;91.11
6208;BME280;3137;51.550;7.060;2023-01-31T15:23:58;101593.38;;;5.89;91.02